sensor_id;sensor_type;location;lat;lon;timestamp;pressure;altitude;pressure_sealevel;temperature;humidity
17615;BME280;8926;49.720;6.576;2023-04-07T00:01:19;99636.03;;;9.28;85.33
17615;BME280;8926;49.720;6.576;2023-04-07T00:03:45;99636.03;;;9.28;84.66
17615;BME280;8926;49.720;6.576;2023-04-07T00:06:11;99631.56;;;9.30;84.01
17615;BME280;8926;49.720;6.576;2023-04-07T00:08:36;99629.88;;;9.29;84.56
17615;BME280;8926;49.720;6.576;2023-04-07T00:11:01;99628.19;;;9.28;84.89
17615;BME280;8926;49.720;6.576;2023-04-07T00:13:27;99633.41;;;9.28;84.13
17615;BME280;8926;49.720;6.576;2023-04-07T00:15:52;99636.94;;;9.27;84.08
17615;BME280;8926;49.720;6.576;2023-04-07T00:18:18;99627.50;;;9.25;84.40
17615;BME280;8926;49.720;6.576;2023-04-07T00:20:43;99625.31;;;9.17;85.29
17615;BME280;8926;49.720;6.576;2023-04-07T00:23:08;99626.16;;;9.17;84.93
17615;BME280;8926;49.720;6.576;2023-04-07T00:25:34;99618.41;;;9.16;84.49
17615;BME280;8926;49.720;6.576;2023-04-07T00:27:59;99612.50;;;9.12;85.41
17615;BME280;8926;49.720;6.576;2023-04-07T00:30:25;99611.66;;;9.12;84.22
17615;BME280;8926;49.720;6.576;2023-04-07T00:32:50;99613.34;;;9.13;86.34
17615;BME280;8926;49.720;6.576;2023-04-07T00:35:16;99616.72;;;9.15;85.87
17615;BME280;8926;49.720;6.576;2023-04-07T00:37:41;99618.25;;;9.19;85.51
17615;BME280;8926;49.720;6.576;2023-04-07T00:40:07;99610.44;;;9.19;86.27
17615;BME280;8926;49.720;6.576;2023-04-07T00:42:32;99609.34;;;9.23;85.52
17615;BME280;8926;49.720;6.576;2023-04-07T00:44:58;99603.13;;;9.26;85.83
17615;BME280;8926;49.720;6.576;2023-04-07T00:47:23;99605.66;;;9.27;85.65
17615;BME280;8926;49.720;6.576;2023-04-07T00:49:49;99602.13;;;9.28;84.99
17615;BME280;8926;49.720;6.576;2023-04-07T00:52:14;99605.66;;;9.27;85.24
17615;BME280;8926;49.720;6.576;2023-04-07T00:54:41;99599.59;;;9.27;85.54
17615;BME280;8926;49.720;6.576;2023-04-07T00:57:06;99598.75;;;9.26;85.49
17615;BME280;8926;49.720;6.576;2023-04-07T00:59:32;99599.59;;;9.27;85.19
17615;BME280;8926;49.720;6.576;2023-04-07T01:02:15;99599.44;;;9.30;85.25
17615;BME280;8926;49.720;6.576;2023-04-07T01:04:50;99595.06;;;9.30;84.36
17615;BME280;8926;49.720;6.576;2023-04-07T01:07:22;99588.94;;;9.31;84.57
17615;BME280;8926;49.720;6.576;2023-04-07T01:09:54;99596.75;;;9.31;85.10
17615;BME280;8926;49.720;6.576;2023-04-07T01:12:40;99591.72;;;9.28;85.74
17615;BME280;8926;49.720;6.576;2023-04-07T01:15:10;99588.19;;;9.29;85.63
17615;BME280;8926;49.720;6.576;2023-04-07T01:17:38;99584.66;;;9.30;85.51
17615;BME280;8926;49.720;6.576;2023-04-07T01:20:11;99587.16;;;9.32;83.94
17615;BME280;8926;49.720;6.576;2023-04-07T01:22:53;99582.03;;;9.30;85.11
17615;BME280;8926;49.720;6.576;2023-04-07T01:28:28;99575.91;;;9.31;86.07
17615;BME280;8926;49.720;6.576;2023-04-07T01:30:58;99577.59;;;9.32;85.81
17615;BME280;8926;49.720;6.576;2023-04-07T01:33:28;99577.59;;;9.32;85.58
17615;BME280;8926;49.720;6.576;2023-04-07T01:35:57;99579.28;;;9.33;85.60
17615;BME280;8926;49.720;6.576;2023-04-07T01:38:24;99584.41;;;9.35;84.84
17615;BME280;8926;49.720;6.576;2023-04-07T01:40:51;99580.75;;;9.37;85.86
17615;BME280;8926;49.720;6.576;2023-04-07T01:43:17;99584.97;;;9.40;85.63
17615;BME280;8926;49.720;6.576;2023-04-07T01:45:43;99585.97;;;9.37;85.17
17615;BME280;8926;49.720;6.576;2023-04-07T01:48:11;99589.50;;;9.36;84.03
17615;BME280;8926;49.720;6.576;2023-04-07T01:50:37;99579.06;;;9.36;84.87
17615;BME280;8926;49.720;6.576;2023-04-07T01:53:03;99583.66;;;9.33;85.35
17615;BME280;8926;49.720;6.576;2023-04-07T01:55:30;99586.16;;;9.34;85.65
17615;BME280;8926;49.720;6.576;2023-04-07T01:57:55;99582.63;;;9.35;85.50
17615;BME280;8926;49.720;6.576;2023-04-07T02:00:21;99579.06;;;9.36;86.09
17615;BME280;8926;49.720;6.576;2023-04-07T02:02:48;99584.28;;;9.36;86.22
17615;BME280;8926;49.720;6.576;2023-04-07T02:05:18;99576.47;;;9.36;86.99
17615;BME280;8926;49.720;6.576;2023-04-07T02:07:57;99570.34;;;9.37;87.02
17615;BME280;8926;49.720;6.576;2023-04-07T02:10:26;99570.34;;;9.37;86.09
17615;BME280;8926;49.720;6.576;2023-04-07T02:12:52;99579.75;;;9.40;86.11
17615;BME280;8926;49.720;6.576;2023-04-07T02:15:18;99584.03;;;9.41;86.32
17615;BME280;8926;49.720;6.576;2023-04-07T02:17:47;99579.66;;;9.41;86.35
17615;BME280;8926;49.720;6.576;2023-04-07T02:20:14;99575.38;;;9.40;86.88
17615;BME280;8926;49.720;6.576;2023-04-07T02:22:40;99575.38;;;9.40;87.47
17615;BME280;8926;49.720;6.576;2023-04-07T02:25:30;99572.78;;;9.40;86.90
17615;BME280;8926;49.720;6.576;2023-04-07T02:27:57;99582.44;;;9.38;87.34
17615;BME280;8926;49.720;6.576;2023-04-07T02:30:23;99580.75;;;9.37;87.37
17615;BME280;8926;49.720;6.576;2023-04-07T02:32:48;99582.44;;;9.38;87.06
17615;BME280;8926;49.720;6.576;2023-04-07T02:35:15;99572.84;;;9.39;87.52
17615;BME280;8926;49.720;6.576;2023-04-07T02:37:41;99579.84;;;9.38;86.48
17615;BME280;8926;49.720;6.576;2023-04-07T02:40:07;99572.84;;;9.39;87.26
17615;BME280;8926;49.720;6.576;2023-04-07T02:42:32;99571.84;;;9.41;87.13
17615;BME280;8926;49.720;6.576;2023-04-07T02:44:58;99574.47;;;9.41;86.51
17615;BME280;8926;49.720;6.576;2023-04-07T02:47:24;99574.38;;;9.43;86.71
17615;BME280;8926;49.720;6.576;2023-04-07T02:49:49;99573.53;;;9.42;86.72
17615;BME280;8926;49.720;6.576;2023-04-07T02:52:15;99575.22;;;9.43;87.04
17615;BME280;8926;49.720;6.576;2023-04-07T02:54:40;99567.41;;;9.43;87.06
17615;BME280;8926;49.720;6.576;2023-04-07T02:57:05;99572.69;;;9.42;87.26
17615;BME280;8926;49.720;6.576;2023-04-07T02:59:30;99574.47;;;9.41;86.69
17615;BME280;8926;49.720;6.576;2023-04-07T03:01:56;99571.69;;;9.44;86.86
17615;BME280;8926;49.720;6.576;2023-04-07T03:04:21;99569.00;;;9.46;86.73
17615;BME280;8926;49.720;6.576;2023-04-07T03:06:46;99569.84;;;9.46;86.89
17615;BME280;8926;49.720;6.576;2023-04-07T03:09:12;99573.22;;;9.48;87.13
17615;BME280;8926;49.720;6.576;2023-04-07T03:11:37;99573.22;;;9.48;87.09
17615;BME280;8926;49.720;6.576;2023-04-07T03:14:06;99564.63;;;9.46;86.64
17615;BME280;8926;49.720;6.576;2023-04-07T03:16:31;99571.53;;;9.47;87.54
17615;BME280;8926;49.720;6.576;2023-04-07T03:18:57;99556.81;;;9.46;87.36
17615;BME280;8926;49.720;6.576;2023-04-07T03:21:22;99557.66;;;9.47;85.84
17615;BME280;8926;49.720;6.576;2023-04-07T03:23:47;99559.41;;;9.46;86.67
17615;BME280;8926;49.720;6.576;2023-04-07T03:26:12;99559.56;;;9.43;87.12
17615;BME280;8926;49.720;6.576;2023-04-07T03:28:38;99557.72;;;9.45;87.29
17615;BME280;8926;49.720;6.576;2023-04-07T03:31:03;99557.72;;;9.45;87.08
17615;BME280;8926;49.720;6.576;2023-04-07T03:33:28;99557.72;;;9.45;88.26
17615;BME280;8926;49.720;6.576;2023-04-07T03:35:54;99553.34;;;9.46;87.57
17615;BME280;8926;49.720;6.576;2023-04-07T03:38:19;99555.88;;;9.47;87.03
17615;BME280;8926;49.720;6.576;2023-04-07T03:40:45;99557.56;;;9.48;86.69
17615;BME280;8926;49.720;6.576;2023-04-07T03:43:10;99552.59;;;9.44;86.37
17615;BME280;8926;49.720;6.576;2023-04-07T03:45:39;99559.56;;;9.43;86.69
17615;BME280;8926;49.720;6.576;2023-04-07T03:48:04;99564.78;;;9.43;86.78
17615;BME280;8926;49.720;6.576;2023-04-07T03:50:30;99557.72;;;9.45;86.83
17615;BME280;8926;49.720;6.576;2023-04-07T03:52:55;99561.09;;;9.47;86.61
17615;BME280;8926;49.720;6.576;2023-04-07T03:55:21;99557.56;;;9.48;86.57
17615;BME280;8926;49.720;6.576;2023-04-07T03:57:46;99563.63;;;9.49;86.90
17615;BME280;8926;49.720;6.576;2023-04-07T04:00:12;99555.72;;;9.50;86.95
17615;BME280;8926;49.720;6.576;2023-04-07T04:02:37;99560.94;;;9.50;87.17
17615;BME280;8926;49.720;6.576;2023-04-07T04:05:03;99556.56;;;9.51;86.84
17615;BME280;8926;49.720;6.576;2023-04-07T04:07:28;99554.78;;;9.51;87.19
17615;BME280;8926;49.720;6.576;2023-04-07T04:09:53;99568.00;;;9.48;86.48
17615;BME280;8926;49.720;6.576;2023-04-07T04:12:19;99569.84;;;9.46;86.34
17615;BME280;8926;49.720;6.576;2023-04-07T04:14:44;99575.97;;;9.45;86.64
17615;BME280;8926;49.720;6.576;2023-04-07T04:17:09;99568.31;;;9.42;86.53
17615;BME280;8926;49.720;6.576;2023-04-07T04:19:35;99574.53;;;9.40;87.27
17615;BME280;8926;49.720;6.576;2023-04-07T04:22:00;99572.00;;;9.38;87.02
17615;BME280;8926;49.720;6.576;2023-04-07T04:24:25;99575.53;;;9.37;87.50
17615;BME280;8926;49.720;6.576;2023-04-07T04:26:51;99576.59;;;9.35;86.50
17615;BME280;8926;49.720;6.576;2023-04-07T04:29:16;99575.53;;;9.37;86.95
17615;BME280;8926;49.720;6.576;2023-04-07T04:31:41;99579.06;;;9.36;86.43
17615;BME280;8926;49.720;6.576;2023-04-07T04:34:06;99579.06;;;9.36;87.27
17615;BME280;8926;49.720;6.576;2023-04-07T04:36:32;99581.69;;;9.36;86.53
17615;BME280;8926;49.720;6.576;2023-04-07T04:38:57;99591.19;;;9.37;86.12
17615;BME280;8926;49.720;6.576;2023-04-07T04:41:22;99584.28;;;9.36;85.67
17615;BME280;8926;49.720;6.576;2023-04-07T04:43:47;99593.06;;;9.35;85.71
17615;BME280;8926;49.720;6.576;2023-04-07T04:46:13;99593.06;;;9.35;86.04
17615;BME280;8926;49.720;6.576;2023-04-07T04:48:38;99594.06;;;9.33;87.32
17615;BME280;8926;49.720;6.576;2023-04-07T04:51:03;99589.69;;;9.33;87.66
17615;BME280;8926;49.720;6.576;2023-04-07T04:53:29;99584.47;;;9.33;87.11
17615;BME280;8926;49.720;6.576;2023-04-07T04:55:54;99587.84;;;9.35;87.75
17615;BME280;8926;49.720;6.576;2023-04-07T04:58:20;99585.25;;;9.35;87.69
17615;BME280;8926;49.720;6.576;2023-04-07T05:00:45;99585.97;;;9.37;87.18
17615;BME280;8926;49.720;6.576;2023-04-07T05:03:11;99585.25;;;9.35;87.72
17615;BME280;8926;49.720;6.576;2023-04-07T05:05:36;99588.66;;;9.36;88.03
17615;BME280;8926;49.720;6.576;2023-04-07T05:08:01;99590.47;;;9.35;87.50
17615;BME280;8926;49.720;6.576;2023-04-07T05:10:26;99592.03;;;9.38;87.58
17615;BME280;8926;49.720;6.576;2023-04-07T05:12:52;99587.66;;;9.38;87.28
17615;BME280;8926;49.720;6.576;2023-04-07T05:15:17;99592.88;;;9.38;86.82
17615;BME280;8926;49.720;6.576;2023-04-07T05:17:42;99603.22;;;9.40;87.33
17615;BME280;8926;49.720;6.576;2023-04-07T05:20:08;99603.28;;;9.38;87.52
17615;BME280;8926;49.720;6.576;2023-04-07T05:22:34;99608.50;;;9.38;88.33
17615;BME280;8926;49.720;6.576;2023-04-07T05:25:00;99605.34;;;9.33;88.10
17615;BME280;8926;49.720;6.576;2023-04-07T05:27:25;99602.81;;;9.32;88.14
17615;BME280;8926;49.720;6.576;2023-04-07T05:29:51;99615.00;;;9.31;88.80
17615;BME280;8926;49.720;6.576;2023-04-07T05:32:18;99612.41;;;9.31;88.54
17615;BME280;8926;49.720;6.576;2023-04-07T05:34:43;99613.25;;;9.32;88.47
17615;BME280;8926;49.720;6.576;2023-04-07T05:37:08;99612.41;;;9.31;88.40
17615;BME280;8926;49.720;6.576;2023-04-07T05:39:34;99621.22;;;9.29;88.90
17615;BME280;8926;49.720;6.576;2023-04-07T05:41:59;99603.97;;;9.26;88.59
17615;BME280;8926;49.720;6.576;2023-04-07T05:44:26;99605.66;;;9.27;88.70
17615;BME280;8926;49.720;6.576;2023-04-07T05:46:51;99610.88;;;9.27;88.94
17615;BME280;8926;49.720;6.576;2023-04-07T05:49:16;99614.41;;;9.26;89.64
17615;BME280;8926;49.720;6.576;2023-04-07T05:51:42;99619.78;;;9.23;89.23
17615;BME280;8926;49.720;6.576;2023-04-07T05:54:07;99615.56;;;9.21;89.05
17615;BME280;8926;49.720;6.576;2023-04-07T05:56:32;99626.00;;;9.21;89.81
17615;BME280;8926;49.720;6.576;2023-04-07T05:58:58;99616.25;;;9.24;89.01
17615;BME280;8926;49.720;6.576;2023-04-07T06:01:24;99618.84;;;9.24;89.40
17615;BME280;8926;49.720;6.576;2023-04-07T06:03:50;99616.25;;;9.24;89.55
17615;BME280;8926;49.720;6.576;2023-04-07T06:06:15;99621.47;;;9.24;90.08
17615;BME280;8926;49.720;6.576;2023-04-07T06:08:40;99623.31;;;9.22;89.81
17615;BME280;8926;49.720;6.576;2023-04-07T06:11:05;99623.31;;;9.22;90.35
17615;BME280;8926;49.720;6.576;2023-04-07T06:13:31;99625.00;;;9.23;89.08
17615;BME280;8926;49.720;6.576;2023-04-07T06:15:56;99626.66;;;9.24;90.31
17615;BME280;8926;49.720;6.576;2023-04-07T06:18:22;99630.03;;;9.26;90.48
17615;BME280;8926;49.720;6.576;2023-04-07T06:20:47;99631.72;;;9.27;90.31
17615;BME280;8926;49.720;6.576;2023-04-07T06:23:12;99629.88;;;9.29;90.68
17615;BME280;8926;49.720;6.576;2023-04-07T06:25:38;99631.56;;;9.30;90.05
17615;BME280;8926;49.720;6.576;2023-04-07T06:28:03;99636.69;;;9.32;90.54
17615;BME280;8926;49.720;6.576;2023-04-07T06:30:29;99634.94;;;9.32;90.89
17615;BME280;8926;49.720;6.576;2023-04-07T06:32:55;99641.84;;;9.33;90.22
17615;BME280;8926;49.720;6.576;2023-04-07T06:35:20;99636.63;;;9.33;90.13
17615;BME280;8926;49.720;6.576;2023-04-07T06:37:45;99638.31;;;9.34;90.56
17615;BME280;8926;49.720;6.576;2023-04-07T06:40:11;99639.16;;;9.35;90.15
17615;BME280;8926;49.720;6.576;2023-04-07T06:42:36;99641.47;;;9.39;89.73
17615;BME280;8926;49.720;6.576;2023-04-07T06:45:01;99630.72;;;9.45;88.98
17615;BME280;8926;49.720;6.576;2023-04-07T06:47:27;99640.84;;;9.51;88.03
17615;BME280;8926;49.720;6.576;2023-04-07T06:49:53;99639.06;;;9.52;88.88
17615;BME280;8926;49.720;6.576;2023-04-07T06:52:18;99639.91;;;9.52;88.96
17615;BME280;8926;49.720;6.576;2023-04-07T06:54:43;99640.84;;;9.51;88.91
17615;BME280;8926;49.720;6.576;2023-04-07T06:57:09;99644.03;;;9.57;88.55
17615;BME280;8926;49.720;6.576;2023-04-07T06:59:37;99646.50;;;9.60;88.47
17615;BME280;8926;49.720;6.576;2023-04-07T07:02:02;99641.84;;;9.65;87.40
17615;BME280;8926;49.720;6.576;2023-04-07T07:04:28;99647.91;;;9.65;87.81
17615;BME280;8926;49.720;6.576;2023-04-07T07:06:53;99643.34;;;9.69;88.30
17615;BME280;8926;49.720;6.576;2023-04-07T07:09:20;99647.56;;;9.71;87.52
17615;BME280;8926;49.720;6.576;2023-04-07T07:11:45;99649.94;;;9.76;86.71
17615;BME280;8926;49.720;6.576;2023-04-07T07:14:12;99653.47;;;9.75;87.35
17615;BME280;8926;49.720;6.576;2023-04-07T07:16:37;99642.88;;;9.78;88.80
17615;BME280;8926;49.720;6.576;2023-04-07T07:19:02;99651.28;;;9.83;86.42
17615;BME280;8926;49.720;6.576;2023-04-07T07:21:28;99647.00;;;9.82;87.93
17615;BME280;8926;49.720;6.576;2023-04-07T07:23:53;99652.03;;;9.85;86.25
17615;BME280;8926;49.720;6.576;2023-04-07T07:26:18;99654.81;;;9.82;88.13
17615;BME280;8926;49.720;6.576;2023-04-07T07:28:44;99661.72;;;9.83;88.82
17615;BME280;8926;49.720;6.576;2023-04-07T07:31:10;99659.50;;;9.91;89.78
17615;BME280;8926;49.720;6.576;2023-04-07T07:33:37;99648.66;;;9.99;87.45
17615;BME280;8926;49.720;6.576;2023-04-07T07:36:04;99657.16;;;10.02;86.84
17615;BME280;8926;49.720;6.576;2023-04-07T07:38:30;99658.84;;;10.03;86.95
17615;BME280;8926;49.720;6.576;2023-04-07T07:40:55;99662.28;;;10.04;86.79
17615;BME280;8926;49.720;6.576;2023-04-07T07:43:20;99663.91;;;10.06;86.75
17615;BME280;8926;49.720;6.576;2023-04-07T07:45:46;99670.44;;;10.13;85.25
17615;BME280;8926;49.720;6.576;2023-04-07T07:48:11;99669.13;;;10.06;85.62
17615;BME280;8926;49.720;6.576;2023-04-07T07:50:37;99674.34;;;10.06;85.55
17615;BME280;8926;49.720;6.576;2023-04-07T07:53:02;99677.13;;;10.03;85.77
17615;BME280;8926;49.720;6.576;2023-04-07T07:55:27;99668.53;;;10.01;86.28
17615;BME280;8926;49.720;6.576;2023-04-07T07:57:53;99681.56;;;10.01;85.97
17615;BME280;8926;49.720;6.576;2023-04-07T08:00:18;99677.44;;;9.97;86.39
17615;BME280;8926;49.720;6.576;2023-04-07T08:02:43;99683.44;;;9.99;87.91
17615;BME280;8926;49.720;6.576;2023-04-07T08:05:09;99689.16;;;10.06;87.65
17615;BME280;8926;49.720;6.576;2023-04-07T08:07:34;99692.16;;;10.14;87.46
17615;BME280;8926;49.720;6.576;2023-04-07T08:10:00;99689.16;;;10.22;87.30
17615;BME280;8926;49.720;6.576;2023-04-07T08:12:26;99689.59;;;10.30;86.77
17615;BME280;8926;49.720;6.576;2023-04-07T08:14:51;99694.81;;;10.30;86.44
17615;BME280;8926;49.720;6.576;2023-04-07T08:17:16;99698.94;;;10.34;86.04
17615;BME280;8926;49.720;6.576;2023-04-07T08:19:42;99703.97;;;10.37;86.03
17615;BME280;8926;49.720;6.576;2023-04-07T08:22:07;99698.38;;;10.43;85.99
17615;BME280;8926;49.720;6.576;2023-04-07T08:24:32;99701.59;;;10.48;85.82
17615;BME280;8926;49.720;6.576;2023-04-07T08:26:58;99695.50;;;10.47;86.32
17615;BME280;8926;49.720;6.576;2023-04-07T08:29:23;99696.09;;;10.52;86.21
17615;BME280;8926;49.720;6.576;2023-04-07T08:31:48;99699.22;;;10.59;86.17
17615;BME280;8926;49.720;6.576;2023-04-07T08:34:13;99699.59;;;10.67;86.12
17615;BME280;8926;49.720;6.576;2023-04-07T08:36:40;99702.53;;;10.77;86.06
17615;BME280;8926;49.720;6.576;2023-04-07T08:39:05;99703.00;;;10.83;85.57
17615;BME280;8926;49.720;6.576;2023-04-07T08:41:38;99711.44;;;10.88;84.78
17615;BME280;8926;49.720;6.576;2023-04-07T08:44:05;99705.38;;;10.88;86.04
17615;BME280;8926;49.720;6.576;2023-04-07T08:46:32;99709.75;;;11.02;84.38
17615;BME280;8926;49.720;6.576;2023-04-07T08:48:59;99712.19;;;11.05;84.18
17615;BME280;8926;49.720;6.576;2023-04-07T08:51:30;99712.59;;;11.13;83.85
17615;BME280;8926;49.720;6.576;2023-04-07T08:54:09;99716.50;;;11.20;84.49
17615;BME280;8926;49.720;6.576;2023-04-07T08:56:39;99711.88;;;11.39;85.34
17615;BME280;8926;49.720;6.576;2023-04-07T08:59:06;99712.44;;;11.59;83.96
17615;BME280;8926;49.720;6.576;2023-04-07T09:01:34;99719.50;;;11.71;82.73
17615;BME280;8926;49.720;6.576;2023-04-07T09:04:01;99723.63;;;11.75;82.70
17615;BME280;8926;49.720;6.576;2023-04-07T09:06:29;99726.63;;;11.83;83.71
17615;BME280;8926;49.720;6.576;2023-04-07T09:08:59;99721.13;;;11.87;81.89
17615;BME280;8926;49.720;6.576;2023-04-07T09:11:25;99717.06;;;11.96;82.13
17615;BME280;8926;49.720;6.576;2023-04-07T09:13:51;99714.81;;;12.04;81.57
17615;BME280;8926;49.720;6.576;2023-04-07T09:16:16;99722.66;;;12.18;82.04
17615;BME280;8926;49.720;6.576;2023-04-07T09:18:42;99723.91;;;12.26;80.53
17615;BME280;8926;49.720;6.576;2023-04-07T09:21:07;99721.84;;;12.31;79.21
17615;BME280;8926;49.720;6.576;2023-04-07T09:23:34;99724.34;;;12.19;77.96
17615;BME280;8926;49.720;6.576;2023-04-07T09:26:17;99727.91;;;12.18;77.20
17615;BME280;8926;49.720;6.576;2023-04-07T09:28:57;99727.09;;;12.31;78.02
17615;BME280;8926;49.720;6.576;2023-04-07T09:31:44;99723.53;;;12.32;77.77
17615;BME280;8926;49.720;6.576;2023-04-07T09:34:37;99716.22;;;12.37;76.03
17615;BME280;8926;49.720;6.576;2023-04-07T09:37:04;99718.03;;;12.49;76.69
17615;BME280;8926;49.720;6.576;2023-04-07T09:39:30;99718.00;;;12.63;75.89
17615;BME280;8926;49.720;6.576;2023-04-07T09:41:56;99716.44;;;12.73;75.82
17615;BME280;8926;49.720;6.576;2023-04-07T09:44:22;99721.41;;;12.90;75.10
17615;BME280;8926;49.720;6.576;2023-04-07T09:46:55;99721.94;;;13.08;75.04
17615;BME280;8926;49.720;6.576;2023-04-07T09:49:24;99716.22;;;13.16;72.07
17615;BME280;8926;49.720;6.576;2023-04-07T09:54:33;99718.75;;;13.30;68.58
17615;BME280;8926;49.720;6.576;2023-04-07T09:56:59;99719.59;;;13.31;70.57
17615;BME280;8926;49.720;6.576;2023-04-07T09:59:27;99722.50;;;13.26;69.89
17615;BME280;8926;49.720;6.576;2023-04-07T10:01:52;99713.19;;;13.22;69.73
17615;BME280;8926;49.720;6.576;2023-04-07T10:04:18;99718.34;;;13.23;69.93
17615;BME280;8926;49.720;6.576;2023-04-07T10:06:44;99709.94;;;13.31;70.37
17615;BME280;8926;49.720;6.576;2023-04-07T10:09:11;99716.03;;;13.44;69.76
17615;BME280;8926;49.720;6.576;2023-04-07T10:11:37;99720.84;;;13.50;69.15
17615;BME280;8926;49.720;6.576;2023-04-07T10:14:03;99710.22;;;13.65;69.04
17615;BME280;8926;49.720;6.576;2023-04-07T10:16:29;99712.44;;;13.71;68.55
17615;BME280;8926;49.720;6.576;2023-04-07T10:18:54;99722.25;;;13.80;68.77
17615;BME280;8926;49.720;6.576;2023-04-07T10:21:21;99710.81;;;13.81;67.56
17615;BME280;8926;49.720;6.576;2023-04-07T10:23:55;99720.38;;;13.82;67.33
17615;BME280;8926;49.720;6.576;2023-04-07T10:26:25;99718.91;;;13.90;67.43
17615;BME280;8926;49.720;6.576;2023-04-07T10:28:58;99715.09;;;13.95;66.93
17615;BME280;8926;49.720;6.576;2023-04-07T10:31:24;99724.88;;;13.92;65.87
17615;BME280;8926;49.720;6.576;2023-04-07T10:33:51;99724.56;;;13.84;65.66
17615;BME280;8926;49.720;6.576;2023-04-07T10:36:19;99730.38;;;13.77;64.58
17615;BME280;8926;49.720;6.576;2023-04-07T10:44:05;99725.72;;;13.93;64.68
17615;BME280;8926;49.720;6.576;2023-04-07T10:49:15;99720.38;;;14.55;63.62
17615;BME280;8926;49.720;6.576;2023-04-07T10:51:41;99720.38;;;14.55;62.14
17615;BME280;8926;49.720;6.576;2023-04-07T10:54:22;99723.97;;;14.54;62.18
17615;BME280;8926;49.720;6.576;2023-04-07T10:59:31;99722.53;;;14.37;62.23
17615;BME280;8926;49.720;6.576;2023-04-07T11:04:48;99726.16;;;14.23;63.36
17615;BME280;8926;49.720;6.576;2023-04-07T11:07:14;99724.41;;;14.11;62.62
17615;BME280;8926;49.720;6.576;2023-04-07T11:09:40;99729.19;;;13.93;62.95
17615;BME280;8926;49.720;6.576;2023-04-07T11:12:06;99734.91;;;13.75;63.71
17615;BME280;8926;49.720;6.576;2023-04-07T11:14:33;99733.31;;;13.59;64.56
17615;BME280;8926;49.720;6.576;2023-04-07T11:17:01;99732.78;;;13.54;65.18
17615;BME280;8926;49.720;6.576;2023-04-07T11:19:27;99737.22;;;13.54;65.40
17615;BME280;8926;49.720;6.576;2023-04-07T11:22:14;99730.50;;;13.63;65.14
17615;BME280;8926;49.720;6.576;2023-04-07T11:24:40;99733.16;;;13.99;64.62
17615;BME280;8926;49.720;6.576;2023-04-07T11:27:11;99722.75;;;14.58;62.54
17615;BME280;8926;49.720;6.576;2023-04-07T11:29:36;99721.41;;;15.22;60.65
17615;BME280;8926;49.720;6.576;2023-04-07T11:32:03;99716.56;;;15.63;57.81
17615;BME280;8926;49.720;6.576;2023-04-07T11:34:33;99733.06;;;15.42;55.37
17615;BME280;8926;49.720;6.576;2023-04-07T11:37:23;99726.06;;;15.19;53.47
17615;BME280;8926;49.720;6.576;2023-04-07T11:39:52;99725.63;;;15.25;55.76
17615;BME280;8926;49.720;6.576;2023-04-07T11:42:34;99720.59;;;15.44;56.72
17615;BME280;8926;49.720;6.576;2023-04-07T11:45:00;99721.59;;;15.54;54.56
17615;BME280;8926;49.720;6.576;2023-04-07T11:47:36;99729.94;;;15.37;54.95
17615;BME280;8926;49.720;6.576;2023-04-07T11:50:01;99725.84;;;15.22;54.94
17615;BME280;8926;49.720;6.576;2023-04-07T11:52:27;99728.81;;;15.17;53.24
17615;BME280;8926;49.720;6.576;2023-04-07T11:54:52;99727.59;;;15.10;55.34
17615;BME280;8926;49.720;6.576;2023-04-07T11:57:25;99733.56;;;15.01;54.67
17615;BME280;8926;49.720;6.576;2023-04-07T12:00:07;99733.41;;;14.91;56.13
17615;BME280;8926;49.720;6.576;2023-04-07T12:02:34;99738.06;;;14.88;56.53
17615;BME280;8926;49.720;6.576;2023-04-07T12:05:00;99736.03;;;14.80;52.65
17615;BME280;8926;49.720;6.576;2023-04-07T12:07:25;99731.28;;;14.97;54.24
17615;BME280;8926;49.720;6.576;2023-04-07T12:09:52;99729.06;;;15.14;54.54
17615;BME280;8926;49.720;6.576;2023-04-07T12:12:28;99729.44;;;15.21;54.11
17615;BME280;8926;49.720;6.576;2023-04-07T12:14:55;99736.84;;;15.16;54.35
17615;BME280;8926;49.720;6.576;2023-04-07T12:17:24;99738.13;;;15.10;53.85
17615;BME280;8926;49.720;6.576;2023-04-07T12:19:50;99738.53;;;15.39;53.57
17615;BME280;8926;49.720;6.576;2023-04-07T12:22:16;99728.00;;;15.39;54.01
17615;BME280;8926;49.720;6.576;2023-04-07T12:24:41;99732.50;;;15.61;51.48
17615;BME280;8926;49.720;6.576;2023-04-07T12:27:07;99725.31;;;15.63;52.81
17615;BME280;8926;49.720;6.576;2023-04-07T12:29:33;99735.97;;;15.73;53.29
17615;BME280;8926;49.720;6.576;2023-04-07T12:31:58;99729.41;;;15.78;52.07
17615;BME280;8926;49.720;6.576;2023-04-07T12:34:23;99730.09;;;15.91;52.84
17615;BME280;8926;49.720;6.576;2023-04-07T12:36:49;99738.84;;;15.81;51.35
17615;BME280;8926;49.720;6.576;2023-04-07T12:39:15;99746.47;;;15.50;50.94
17615;BME280;8926;49.720;6.576;2023-04-07T12:41:40;99747.63;;;15.35;52.04
17615;BME280;8926;49.720;6.576;2023-04-07T12:44:06;99747.81;;;15.10;52.14
17615;BME280;8926;49.720;6.576;2023-04-07T12:46:32;99749.09;;;14.93;53.16
17615;BME280;8926;49.720;6.576;2023-04-07T12:48:57;99753.22;;;14.84;53.16
17615;BME280;8926;49.720;6.576;2023-04-07T12:51:22;99752.69;;;14.68;54.58
17615;BME280;8926;49.720;6.576;2023-04-07T12:53:47;99754.56;;;14.55;53.88
17615;BME280;8926;49.720;6.576;2023-04-07T12:56:13;99753.59;;;14.56;53.93
17615;BME280;8926;49.720;6.576;2023-04-07T12:58:39;99748.31;;;14.56;53.89
17615;BME280;8926;49.720;6.576;2023-04-07T13:01:04;99746.16;;;14.74;53.71
17615;BME280;8926;49.720;6.576;2023-04-07T13:03:30;99747.41;;;14.92;54.43
17615;BME280;8926;49.720;6.576;2023-04-07T13:05:55;99743.88;;;15.04;52.75
17615;BME280;8926;49.720;6.576;2023-04-07T13:08:25;99746.28;;;15.18;53.08
17615;BME280;8926;49.720;6.576;2023-04-07T13:10:51;99745.00;;;15.24;51.01
17615;BME280;8926;49.720;6.576;2023-04-07T13:13:16;99740.69;;;15.34;52.22
17615;BME280;8926;49.720;6.576;2023-04-07T13:15:42;99736.41;;;15.44;53.26
17615;BME280;8926;49.720;6.576;2023-04-07T13:18:07;99745.25;;;15.43;51.43
17615;BME280;8926;49.720;6.576;2023-04-07T13:20:32;99748.56;;;15.23;52.10
17615;BME280;8926;49.720;6.576;2023-04-07T13:22:58;99747.19;;;14.95;52.50
17615;BME280;8926;49.720;6.576;2023-04-07T13:25:23;99738.72;;;15.03;53.73
17615;BME280;8926;49.720;6.576;2023-04-07T13:27:48;99753.06;;;15.10;52.65
17615;BME280;8926;49.720;6.576;2023-04-07T13:30:13;99748.66;;;15.10;52.06
17615;BME280;8926;49.720;6.576;2023-04-07T13:32:39;99742.09;;;15.05;53.00
17615;BME280;8926;49.720;6.576;2023-04-07T13:35:04;99746.13;;;15.09;52.73